Nearby METAR Reports

 

KBED - Bedford, Massachusetts, USA
Distance from station: ENE 12mi, 20km
Updated: Sun, 19-Sep-2021 3:00am EDT
Overcast
Overcast
 Wind from NNW
Wind: NNW 9 mph , 15 km/h
Temperature: 66°F , 19°C
Dew Point: 63°F , 17°C
Humidity: 88%
Barometer: 30.02 inHg , 1016.6 hPa
Clouds: Overcast
Visibility: 10 miles , 16 km
Cloud details: Overcast 3000 ft
2021/09/19 07:00 KBED 190700Z AUTO 33008KT 10SM OVC030 19/17 A3002 RMK AO2 T01890172
KFIT - Fitchburg, Massachusetts, USA
Distance from station: NW 15mi, 24km
Updated: Sun, 19-Sep-2021 2:52am EDT
Mostly cloudy
Mostly cloudy
 Wind from NW
Wind: NW 7 mph , 11 km/h
Temperature: 64°F , 18°C
Dew Point: 59°F , 15°C
Humidity: 83%
Barometer: 30.05 inHg , 1017.6 hPa
Clouds: Mostly cloudy
Visibility: 10 miles , 16 km
Cloud details: Few Clouds 3800 ft
Mostly cloudy 6500 ft
2021/09/19 06:52 KFIT 190652Z AUTO 31006KT 10SM FEW038 BKN065 18/15 A3005 RMK AO2 SLP175 T01780150
 
KORH - Worcester, Massachusetts, USA
Distance from station: WSW 20mi, 32km
Updated: Sun, 19-Sep-2021 2:54am EDT
Overcast
Overcast
 Wind from NNW
Wind: NNW 9 mph , 15 km/h
Temperature: 64°F , 18°C
Dew Point: 55°F , 13°C
Humidity: 73%
Barometer: 30.06 inHg , 1017.9 hPa
Clouds: Overcast
Visibility: 10 miles , 16 km
Cloud details: Overcast 5000 ft
2021/09/19 06:54 KORH 190654Z AUTO 33008KT 10SM OVC050 18/13 A3006 RMK AO2 SLP176 T01780133
KOWD - Norwood, Massachusetts, USA
Distance from station: SE 24mi, 39km
Updated: Sun, 19-Sep-2021 2:53am EDT
Light rain, Overcast
Light rain, Overcast
 Wind from calm
Wind: Calm
Temperature: 66°F , 19°C
Dew Point: 63°F , 17°C
Humidity: 88%
Barometer: 30.02 inHg , 1016.6 hPa
Summary: Light rain
Clouds: Overcast
Visibility: 10 miles , 16 km
Cloud details: Mostly cloudy 5000 ft
Overcast 7000 ft
2021/09/19 06:53 KOWD 190653Z AUTO 00000KT 10SM -RA BKN050 OVC070 19/17 A3002 RMK AO2 RAB38 SLP164 P0004 T01940172
 
KMQE - East Milton, Massachusetts, USA
Distance from station: ESE 25mi, 40km
Updated: Thu, 01-Jul-2021 9:51am EDT
NOT Current

 Wind from WNW
Wind: WNW 9 mph , 15 km/h
Temperature: 75°F , 24°C
Dew Point: 70°F , 21°C
Humidity: 83%
Barometer: 29.86 inHg , 1011.2 hPa
2021/07/01 13:51 KMQE 011351Z AUTO 30008KT 24/21 A2986 RMK AO1 SLP116 T02440206
KASH - Nashua/Boire Fld, New Hampshire, USA
Distance from station: N 26mi, 42km
Updated: Sun, 19-Sep-2021 2:56am EDT
Mostly cloudy
Mostly cloudy
 Wind from WNW
Wind: WNW 6 mph , 9 km/h
Temperature: 63°F , 17°C
Dew Point: 59°F , 15°C
Humidity: 88%
Barometer: 30.05 inHg , 1017.6 hPa
Clouds: Mostly cloudy
Visibility: 10 miles , 16 km
Cloud details: Partly cloudy 2100 ft
Mostly cloudy 3500 ft
Mostly cloudy 5000 ft
2021/09/19 06:56 KASH 190656Z AUTO 30005KT 10SM SCT021 BKN035 BKN050 17/15 A3005 RMK AO2 SLP181 T01720150
 
KBOS - Boston, Massachusetts, USA
Distance from station: E 26mi, 42km
Updated: Sun, 19-Sep-2021 2:54am EDT
Light rain, Overcast
Light rain, Overcast
 Wind from N
Wind: N 12 mph , 19 km/h
Temperature: 70°F , 21°C
Dew Point: 64°F , 18°C
Humidity: 83%
Barometer: 30.03 inHg , 1016.9 hPa
Summary: Light rain
Clouds: Overcast
Visibility: 10 miles , 16 km
Cloud details: Partly cloudy 1100 ft
Mostly cloudy 2500 ft
Overcast 3900 ft
2021/09/19 06:54 KBOS 190654Z 36010KT 10SM -RA SCT011 BKN025 OVC039 21/18 A3003 RMK AO2 SLP167 P0007 T02060183
KLWM - Lawrence, Massachusetts, USA
Distance from station: NE 29mi, 47km
Updated: Sun, 19-Sep-2021 2:54am EDT
Overcast
Overcast
 Wind from N
Wind: N 6 mph , 9 km/h
Temperature: 66°F , 19°C
Dew Point: 63°F , 17°C
Humidity: 88%
Barometer: 30.05 inHg , 1017.6 hPa
Clouds: Overcast
Visibility: 10 miles , 16 km
Cloud details: Overcast 3800 ft
2021/09/19 06:54 KLWM 190654Z AUTO 35005KT 10SM OVC038 19/17 A3005 RMK AO2 SLP175 T01890172
 
KBVY - Beverly, Massachusetts, USA
Distance from station: ENE 33mi, 54km
Updated: Sun, 19-Sep-2021 2:53am EDT
Overcast
Overcast
 Wind from N
Wind: N 8 mph , 13 km/h
Temperature: 66°F , 19°C
Dew Point: 64°F , 18°C
Humidity: 94%
Barometer: 30.02 inHg , 1016.6 hPa
Clouds: Overcast
Visibility: 10 miles , 16 km
Cloud details: Overcast 3200 ft
2021/09/19 06:53 KBVY 190653Z AUTO 01007KT 10SM OVC032 19/18 A3002 RMK AO2 RAE35 SLP160 P0010 T01940183 $
KSFZ - Pawtucket, Rhode Island, USA
Distance from station: S 34mi, 54km
Updated: Sun, 19-Sep-2021 2:56am EDT
Overcast
Overcast
 Wind from NNE
Wind: NNE 8 mph , 13 km/h
Temperature: 66°F , 19°C
Dew Point: 64°F , 18°C
Humidity: 94%
Barometer: 30.04 inHg , 1017.3 hPa
Clouds: Overcast
Visibility: 10 miles , 16 km
Cloud details: Mostly cloudy 600 ft
Mostly cloudy 2700 ft
Overcast 5000 ft
2021/09/19 06:56 KSFZ 190656Z AUTO 02007KT 10SM BKN006 BKN027 OVC050 19/18 A3004 RMK AO2 CIG 004V008 SLP176 T01890183 PNO $
 
KAFN - Jaffrey, New Hampshire, USA
Distance from station: NW 36mi, 59km
Updated: Sun, 19-Sep-2021 2:52am EDT
Clear
Clear
 Wind from calm
Wind: Calm
Temperature: 57°F , 14°C
Dew Point: 54°F , 12°C
Humidity: 88%
Barometer: 30.08 inHg , 1018.6 hPa
Clouds: Clear
Visibility: 10 miles , 16 km
2021/09/19 06:52 KAFN 190652Z AUTO 00000KT 10SM CLR 14/12 A3008 RMK AO2 SLP187 T01440122
KMHT - Manchester, New Hampshire, USA
Distance from station: N 37mi, 59km
Updated: Sun, 19-Sep-2021 2:53am EDT
Mostly cloudy
Mostly cloudy
 Wind from NNW
Wind: NNW 6 mph , 9 km/h
Temperature: 66°F , 19°C
Dew Point: 52°F , 11°C
Humidity: 60%
Barometer: 30.03 inHg , 1016.9 hPa
Clouds: Mostly cloudy
Visibility: 10 miles , 16 km
Cloud details: Mostly cloudy 3500 ft
2021/09/19 06:53 KMHT 190653Z 34005KT 10SM BKN035 19/11 A3003 RMK AO2 SLP179 T01890111 $
 
KORE - Orange, Massachusetts, USA
Distance from station: WNW 40mi, 65km
Updated: Sun, 19-Sep-2021 2:52am EDT
Clear
Clear
 Wind from calm
Wind: Calm
Temperature: 59°F , 15°C
Dew Point: 55°F , 13°C
Humidity: 88%
Barometer: 30.08 inHg , 1018.6 hPa
Clouds: Clear
Visibility: 10 miles , 16 km
2021/09/19 06:52 KORE 190652Z AUTO 00000KT 10SM CLR 15/13 A3008 RMK AO2 SLP185 T01500133
KTAN - Taunton, Massachusetts, USA
Distance from station: SE 45mi, 72km
Updated: Sun, 19-Sep-2021 2:54am EDT
Mist, Mostly cloudy
Mist, Mostly cloudy
 Wind from calm
Wind: Calm
Temperature: 64°F , 18°C
Dew Point: 64°F , 18°C
Humidity: 100%
Barometer: 30.00 inHg , 1015.9 hPa
Summary: Mist
Clouds: Mostly cloudy
Visibility: 4 miles , 6 km
Cloud details: Mostly cloudy 300 ft
Mostly cloudy 800 ft
Mostly cloudy 3600 ft
2021/09/19 06:54 KTAN 190654Z AUTO 00000KT 4SM BR BKN003 BKN008 BKN036 18/18 A3000 RMK AO2 T01830178
 
KPVD - Providence/Green, Rhode Island, USA
Distance from station: S 48mi, 77km
Updated: Sun, 19-Sep-2021 2:51am EDT
Mostly cloudy
Mostly cloudy
 Wind from N
Wind: N 6 mph , 9 km/h
Temperature: 70°F , 21°C
Dew Point: 66°F , 19°C
Humidity: 88%
Barometer: 30.02 inHg , 1016.6 hPa
Clouds: Mostly cloudy
Visibility: 10 miles , 16 km
Cloud details: Mostly cloudy 900 ft
2021/09/19 06:51 KPVD 190651Z AUTO 01005KT 10SM BKN009 21/19 A3002 RMK AO2 SLP164 T02060194
KGHG - Marshfield, Massachusetts, USA
Distance from station: ESE 49mi, 79km
Updated: Sun, 19-Sep-2021 2:55am EDT
Mostly cloudy
Mostly cloudy
 Wind from NNW
Wind: NNW 7 mph , 11 km/h
Temperature: 66°F , 19°C
Dew Point: 66°F , 19°C
Humidity: 100%
Barometer: 30.00 inHg , 1015.9 hPa
Clouds: Mostly cloudy
Visibility: 10 miles , 16 km
Cloud details: Few Clouds 400 ft
Mostly cloudy 2800 ft
Mostly cloudy 4800 ft
2021/09/19 06:55 KGHG 190655Z AUTO 33006KT 10SM FEW004 BKN028 BKN048 19/19 A3000 RMK AO2
 
KEEN - Keene/Dillant, New Hampshire, USA
Distance from station: NW 50mi, 81km
Updated: Sun, 19-Sep-2021 2:56am EDT
Clear
Clear
 Wind from calm
Wind: Calm
Temperature: 55°F , 13°C
Dew Point: 55°F , 13°C
Humidity: 100%
Barometer: 30.09 inHg , 1019 hPa
Clouds: Clear
Visibility: 10 miles , 16 km
2021/09/19 06:56 KEEN 190656Z AUTO 00000KT 10SM CLR 13/13 A3009 RMK AO2 SLP189 T01330128 $